Time;durP1;ratioP1;P1;durP2;ratioP2;P2;SDS_P1;SDS_P2;PMS_P1;PMS_P2;Temp;Humidity;BMP_temperature;BMP_pressure;BME280_temperature;BME280_humidity;BME280_pressure;Samples;Min_cycle;Max_cycle;Signal;HPM_P1;HPM_P2
2022/05/03 00:00:27;;;;;;;12.37;7.60;;;8.40;99.90;;;;;;5036489;28;20861;-58
2022/05/03 00:03:12;;;;;;;10.10;7.20;;;8.30;99.90;;;;;;5037556;28;20500;-58
2022/05/03 00:06:03;;;;;;;11.10;8.13;;;8.30;99.90;;;;;;5039701;28;20194;-58
2022/05/03 00:08:43;;;;;;;12.50;8.00;;;8.30;99.90;;;;;;5039533;28;20452;-59
2022/05/03 00:11:09;;;;;;;10.13;7.43;;;8.20;99.90;;;;;;5037405;28;20410;-58
2022/05/03 00:14:16;;;;;;;9.63;7.57;;;8.30;99.90;;;;;;5038169;28;20577;-58
2022/05/03 00:16:44;;;;;;;9.97;7.57;;;8.20;99.90;;;;;;5038139;28;20464;-57
2022/05/03 00:19:10;;;;;;;10.37;7.80;;;8.20;99.90;;;;;;5039081;28;20490;-58
2022/05/03 00:21:37;;;;;;;12.90;8.67;;;8.20;99.90;;;;;;5040565;28;20449;-57
2022/05/03 00:24:04;;;;;;;9.87;7.60;;;8.20;99.90;;;;;;5040767;28;20434;-58
2022/05/03 00:26:31;;;;;;;10.10;8.37;;;8.20;99.90;;;;;;5044249;28;20449;-58
2022/05/03 00:28:57;;;;;;;12.33;8.90;;;8.20;99.90;;;;;;5040266;28;20425;-58
2022/05/03 00:31:24;;;;;;;9.97;7.73;;;8.10;99.90;;;;;;5045886;28;20436;-58
2022/05/03 00:33:52;;;;;;;11.70;8.10;;;8.10;99.90;;;;;;5042705;28;20445;-58
2022/05/03 00:36:18;;;;;;;8.47;7.50;;;8.10;99.90;;;;;;5043051;28;20595;-58
2022/05/03 00:38:43;;;;;;;13.80;9.00;;;8.10;99.90;;;;;;5038668;28;20509;-58
2022/05/03 00:41:13;;;;;;;11.67;8.47;;;8.00;99.90;;;;;;5040264;28;20199;-58
2022/05/03 00:44:55;;;;;;;9.63;7.90;;;8.00;99.90;;;;;;5043256;28;20176;-58
2022/05/03 00:46:50;;;;;;;11.47;8.73;;;8.00;99.90;;;;;;5042000;28;20540;-59
2022/05/03 00:49:21;;;;;;;11.60;7.80;;;7.90;99.90;;;;;;5043793;28;20457;-58
2022/05/03 00:52:04;;;;;;;9.63;7.90;;;7.90;99.90;;;;;;5045712;28;20461;-58
2022/05/03 00:54:54;;;;;;;10.70;7.40;;;7.90;99.90;;;;;;5043351;28;20441;-58
2022/05/03 00:57:25;;;;;;;11.40;7.57;;;7.80;99.90;;;;;;5041849;28;20422;-58
2022/05/03 00:59:53;;;;;;;10.27;8.83;;;7.80;99.90;;;;;;5043410;28;20488;-58
2022/05/03 01:02:28;;;;;;;11.63;8.00;;;7.80;99.90;;;;;;5042756;28;20467;-58
2022/05/03 01:05:09;;;;;;;9.60;8.03;;;7.80;99.90;;;;;;5041334;28;20467;-58
2022/05/03 01:07:36;;;;;;;9.87;7.77;;;7.70;99.90;;;;;;5044390;28;20445;-58
2022/05/03 01:10:23;;;;;;;9.87;7.80;;;7.70;99.90;;;;;;5043997;28;20539;-58
2022/05/03 01:13:24;;;;;;;9.93;8.10;;;7.60;99.90;;;;;;5042710;28;20924;-58
2022/05/03 01:16:07;;;;;;;11.83;9.00;;;7.60;99.90;;;;;;5040614;28;20449;-58
2022/05/03 01:18:52;;;;;;;9.80;8.13;;;7.50;99.90;;;;;;5043713;28;20949;-58
2022/05/03 01:21:49;;;;;;;11.00;8.67;;;7.50;99.90;;;;;;5042352;28;20556;-58
2022/05/03 01:24:30;;;;;;;10.80;8.17;;;7.50;99.90;;;;;;5039394;28;20941;-58
2022/05/03 01:27:10;;;;;;;10.57;8.00;;;7.50;99.90;;;;;;5043512;28;20906;-58
2022/05/03 01:29:36;;;;;;;11.67;8.40;;;7.50;99.90;;;;;;5038753;28;20998;-58
2022/05/03 01:32:07;;;;;;;10.90;8.37;;;7.50;99.90;;;;;;5039751;28;20505;-58
2022/05/03 01:34:34;;;;;;;17.50;8.00;;;7.50;99.90;;;;;;5040106;28;20473;-58
2022/05/03 01:37:00;;;;;;;11.10;8.73;;;7.50;99.90;;;;;;5041944;28;20439;-57
2022/05/03 01:39:53;;;;;;;12.13;9.43;;;7.50;99.90;;;;;;5041549;28;20438;-57
2022/05/03 01:42:25;;;;;;;10.77;8.40;;;7.50;99.90;;;;;;5039368;28;20286;-58
2022/05/03 01:45:05;;;;;;;9.90;8.30;;;7.50;99.90;;;;;;5042996;28;20460;-58
2022/05/03 01:47:52;;;;;;;9.80;8.20;;;7.40;99.90;;;;;;5039811;28;20425;-57
2022/05/03 01:50:32;;;;;;;10.53;7.57;;;7.40;99.90;;;;;;5077710;22;20512;-59
2022/05/03 01:53:35;;;;;;;9.33;7.37;;;7.40;99.90;;;;;;5056542;28;20797;-59
2022/05/03 01:56:36;;;;;;;12.70;9.10;;;7.30;99.90;;;;;;5059086;28;20462;-57
2022/05/03 01:59:22;;;;;;;10.47;8.37;;;7.30;99.90;;;;;;4995574;28;20753;-58
2022/05/03 02:01:55;;;;;;;13.60;9.17;;;7.30;99.90;;;;;;5031682;28;20642;-57
2022/05/03 02:04:50;;;;;;;11.23;8.07;;;7.20;99.90;;;;;;5044661;28;20430;-58
2022/05/03 02:08:06;;;;;;;9.73;7.73;;;7.20;99.90;;;;;;5043732;28;20544;-59
2022/05/03 02:11:09;;;;;;;9.50;8.00;;;7.20;99.90;;;;;;4996153;28;20499;-60
2022/05/03 02:17:16;;;;;;;10.30;8.20;;;7.10;99.90;;;;;;5041482;28;20476;-58
2022/05/03 02:20:09;;;;;;;12.37;9.50;;;7.10;99.90;;;;;;5043092;28;20951;-58
2022/05/03 02:22:57;;;;;;;9.63;7.90;;;7.10;99.90;;;;;;5039003;28;20492;-59
2022/05/03 02:25:40;;;;;;;13.90;8.90;;;7.00;99.90;;;;;;5043233;28;20441;-59
2022/05/03 02:28:14;;;;;;;10.77;8.03;;;7.00;99.90;;;;;;5025374;28;20521;-58
2022/05/03 02:30:43;;;;;;;11.20;8.37;;;7.00;99.90;;;;;;5043384;28;20449;-57
2022/05/03 02:33:18;;;;;;;10.13;8.37;;;6.90;99.90;;;;;;5044383;28;20434;-58
2022/05/03 02:35:49;;;;;;;11.30;8.70;;;6.90;99.90;;;;;;5042144;28;20504;-58
2022/05/03 02:38:20;;;;;;;10.33;7.80;;;6.90;99.90;;;;;;5040874;28;20489;-58
2022/05/03 02:40:51;;;;;;;16.87;9.57;;;6.90;99.90;;;;;;5042717;28;20437;-59
2022/05/03 02:43:19;;;;;;;13.27;8.10;;;6.90;99.90;;;;;;5035992;28;21736;-59
2022/05/03 02:45:53;;;;;;;13.10;9.50;;;6.90;99.90;;;;;;5034153;28;20549;-58
2022/05/03 02:48:33;;;;;;;11.40;8.40;;;6.90;99.90;;;;;;5035183;28;20484;-58
2022/05/03 02:51:04;;;;;;;13.40;8.80;;;6.90;99.90;;;;;;5035806;28;20461;-58
2022/05/03 02:53:47;;;;;;;10.50;8.80;;;6.80;99.90;;;;;;5034546;28;20524;-58
2022/05/03 02:56:38;;;;;;;14.80;8.53;;;6.80;99.90;;;;;;5035895;28;20472;-58
2022/05/03 02:59:13;;;;;;;8.63;7.67;;;6.80;99.90;;;;;;5035340;28;20966;-58
2022/05/03 03:02:02;;;;;;;12.63;8.53;;;6.80;99.90;;;;;;5034049;28;20449;-58
2022/05/03 03:04:45;;;;;;;11.43;8.93;;;6.80;99.90;;;;;;5033917;28;20414;-58
2022/05/03 03:07:18;;;;;;;16.23;9.20;;;6.70;99.90;;;;;;5030782;28;20441;-58
2022/05/03 03:09:55;;;;;;;12.13;8.97;;;6.70;99.90;;;;;;5032411;28;20472;-58
2022/05/03 03:12:26;;;;;;;11.40;9.17;;;6.70;99.90;;;;;;5039178;28;20433;-58
2022/05/03 03:15:03;;;;;;;17.80;9.40;;;6.70;99.90;;;;;;5041517;28;20433;-58
2022/05/03 03:17:33;;;;;;;12.07;9.10;;;6.70;99.90;;;;;;5041686;28;20425;-57
2022/05/03 03:19:59;;;;;;;13.33;9.10;;;6.70;99.90;;;;;;5039981;28;20454;-58
2022/05/03 03:22:29;;;;;;;13.80;9.27;;;6.70;99.90;;;;;;5035382;28;20461;-59
2022/05/03 03:24:57;;;;;;;11.43;9.17;;;6.60;99.90;;;;;;5038810;28;20171;-57
2022/05/03 03:27:26;;;;;;;14.67;9.70;;;6.60;99.90;;;;;;5038589;28;20424;-59
2022/05/03 03:29:55;;;;;;;10.53;8.30;;;6.60;99.90;;;;;;5041702;28;20477;-58
2022/05/03 03:32:26;;;;;;;13.93;8.43;;;6.60;99.90;;;;;;5040410;28;20440;-59
2022/05/03 03:34:56;;;;;;;11.90;8.40;;;6.50;99.90;;;;;;5040148;28;20984;-59
2022/05/03 03:37:24;;;;;;;8.87;7.80;;;6.50;99.90;;;;;;5038508;28;20465;-59
2022/05/03 03:39:50;;;;;;;11.20;8.67;;;6.40;99.90;;;;;;5038146;28;21040;-57
2022/05/03 03:42:15;;;;;;;12.67;9.00;;;6.40;99.90;;;;;;5037889;28;20548;-58
2022/05/03 03:44:41;;;;;;;11.90;9.70;;;6.40;99.90;;;;;;5034180;28;20699;-58
2022/05/03 03:47:08;;;;;;;14.57;9.90;;;6.30;99.90;;;;;;5032773;28;20186;-58
2022/05/03 03:49:34;;;;;;;16.07;9.63;;;6.30;99.90;;;;;;5031818;28;20516;-57
2022/05/03 03:52:02;;;;;;;12.50;9.40;;;6.30;99.90;;;;;;5033545;28;20441;-58
2022/05/03 03:54:28;;;;;;;15.80;9.93;;;6.20;99.90;;;;;;5034150;28;20433;-57
2022/05/03 03:56:56;;;;;;;17.73;10.63;;;6.20;99.90;;;;;;5032719;28;20438;-59
2022/05/03 03:59:22;;;;;;;14.80;10.53;;;6.20;99.90;;;;;;5036510;28;20441;-58
2022/05/03 04:01:49;;;;;;;15.63;9.67;;;6.20;99.90;;;;;;5035808;28;20568;-58
2022/05/03 04:04:17;;;;;;;14.13;9.50;;;6.10;99.90;;;;;;5032105;28;20433;-55
2022/05/03 04:06:42;;;;;;;13.40;9.83;;;6.10;99.90;;;;;;5034671;28;20514;-53
2022/05/03 04:09:09;;;;;;;14.77;10.03;;;6.10;99.90;;;;;;5037758;28;20568;-54
2022/05/03 04:11:45;;;;;;;16.83;10.50;;;6.10;99.90;;;;;;5037262;28;20201;-57
2022/05/03 04:14:12;;;;;;;13.77;9.20;;;6.10;99.90;;;;;;5034600;28;20426;-56
2022/05/03 04:16:38;;;;;;;14.47;9.73;;;6.10;99.90;;;;;;5031331;28;20781;-55
2022/05/03 04:19:04;;;;;;;14.17;9.37;;;6.10;99.90;;;;;;5036520;28;20437;-59
2022/05/03 04:21:29;;;;;;;15.13;9.97;;;6.10;99.90;;;;;;5037029;28;20457;-58
2022/05/03 04:23:55;;;;;;;13.60;10.07;;;6.10;99.90;;;;;;5043413;28;20617;-61
2022/05/03 04:26:21;;;;;;;13.20;8.70;;;6.00;99.90;;;;;;5046061;28;20209;-58
2022/05/03 04:28:46;;;;;;;14.87;9.63;;;6.00;99.90;;;;;;5041181;28;20183;-55
2022/05/03 04:31:12;;;;;;;11.83;9.30;;;6.10;99.90;;;;;;5042238;28;20199;-59
2022/05/03 04:33:38;;;;;;;12.40;9.80;;;6.10;99.90;;;;;;5047729;28;20178;-58
2022/05/03 04:36:04;;;;;;;17.97;9.20;;;6.10;99.90;;;;;;5045759;28;20175;-58
2022/05/03 04:38:30;;;;;;;14.23;9.43;;;6.10;99.90;;;;;;5042817;28;20265;-59
2022/05/03 04:40:59;;;;;;;17.73;11.37;;;6.10;99.90;;;;;;5046703;28;20573;-58
2022/05/03 04:43:26;;;;;;;21.93;11.03;;;6.10;99.90;;;;;;5046001;28;20179;-57
2022/05/03 04:45:52;;;;;;;17.90;12.10;;;6.10;99.90;;;;;;5045092;28;20519;-59
2022/05/03 04:48:17;;;;;;;24.60;14.67;;;6.10;99.90;;;;;;5044723;28;20437;-58
2022/05/03 04:50:43;;;;;;;25.73;14.47;;;6.10;99.90;;;;;;5037856;28;20473;-57
2022/05/03 04:53:09;;;;;;;23.00;14.13;;;6.10;99.90;;;;;;5044982;28;20516;-59
2022/05/03 04:55:39;;;;;;;19.00;11.87;;;6.20;99.90;;;;;;5038735;28;20200;-60
2022/05/03 04:58:05;;;;;;;16.30;11.50;;;6.20;99.90;;;;;;5038360;28;20919;-59
2022/05/03 05:00:30;;;;;;;15.50;11.30;;;6.30;99.90;;;;;;5036419;28;20460;-58
2022/05/03 05:02:56;;;;;;;18.80;12.10;;;6.30;99.90;;;;;;5036037;28;20207;-58
2022/05/03 05:05:22;;;;;;;16.27;10.83;;;6.40;99.90;;;;;;5042239;28;20203;-59
2022/05/03 05:07:47;;;;;;;18.87;11.60;;;6.40;99.90;;;;;;5047264;28;20164;-59
2022/05/03 05:10:26;;;;;;;17.20;10.90;;;6.50;99.90;;;;;;5047305;28;20195;-56
2022/05/03 05:12:56;;;;;;;14.00;10.50;;;6.50;99.90;;;;;;5040906;28;20171;-56
2022/05/03 05:15:25;;;;;;;15.80;9.83;;;6.60;99.90;;;;;;5045564;28;20433;-60
2022/05/03 05:17:52;;;;;;;13.97;8.53;;;6.60;99.90;;;;;;5046956;28;20451;-60
2022/05/03 05:20:19;;;;;;;11.90;9.73;;;6.70;99.90;;;;;;5048948;28;20981;-57
2022/05/03 05:22:45;;;;;;;13.03;9.90;;;6.70;99.90;;;;;;5042628;28;20465;-57
2022/05/03 05:25:11;;;;;;;14.67;9.87;;;6.80;99.90;;;;;;5046931;28;20402;-59
2022/05/03 05:27:37;;;;;;;14.77;10.47;;;6.80;99.90;;;;;;5044579;28;20491;-58
2022/05/03 05:30:06;;;;;;;14.50;10.67;;;6.90;99.90;;;;;;5047526;28;20278;-61
2022/05/03 05:32:36;;;;;;;17.60;10.57;;;7.00;99.90;;;;;;5037366;28;20433;-60
2022/05/03 05:35:04;;;;;;;15.47;9.90;;;7.00;99.90;;;;;;5049239;28;20421;-58
2022/05/03 05:37:30;;;;;;;13.87;10.70;;;7.10;99.90;;;;;;5049715;28;20409;-58
2022/05/03 05:39:55;;;;;;;13.20;10.17;;;7.20;99.90;;;;;;5041296;28;20537;-58
2022/05/03 05:42:21;;;;;;;16.23;10.23;;;7.20;99.90;;;;;;5039848;28;20556;-58
2022/05/03 05:44:47;;;;;;;19.20;11.07;;;7.30;99.90;;;;;;5048685;28;20171;-56
2022/05/03 05:47:13;;;;;;;15.43;10.37;;;7.40;99.90;;;;;;5046806;28;20167;-59
2022/05/03 05:49:39;;;;;;;13.50;9.40;;;7.50;99.90;;;;;;5046038;28;20695;-59
2022/05/03 05:54:49;;;;;;;14.97;10.27;;;7.60;99.90;;;;;;5056399;28;20266;-59
2022/05/03 05:57:15;;;;;;;16.17;9.90;;;7.80;99.90;;;;;;5045573;28;20441;-57
2022/05/03 05:59:41;;;;;;;16.57;10.00;;;7.90;99.90;;;;;;5044184;28;20167;-59
2022/05/03 06:02:07;;;;;;;14.47;10.17;;;7.90;99.90;;;;;;5037468;28;20207;-60
2022/05/03 06:04:33;;;;;;;14.50;10.27;;;8.00;99.90;;;;;;5039994;28;20445;-59
2022/05/03 06:06:59;;;;;;;13.57;9.73;;;8.10;99.90;;;;;;5036756;28;20499;-59
2022/05/03 06:09:25;;;;;;;13.73;9.90;;;8.30;99.90;;;;;;5036529;28;20434;-59
2022/05/03 06:11:51;;;;;;;15.40;9.70;;;8.40;99.90;;;;;;5037009;28;20992;-59
2022/05/03 06:14:17;;;;;;;17.80;11.20;;;8.50;99.90;;;;;;5039859;28;20483;-60
2022/05/03 06:16:57;;;;;;;14.80;10.30;;;8.60;99.90;;;;;;5037770;28;20687;-58
2022/05/03 06:19:23;;;;;;;17.13;11.47;;;8.70;99.90;;;;;;5037794;28;20270;-58
2022/05/03 06:21:49;;;;;;;15.73;10.57;;;8.80;99.90;;;;;;5041289;28;20545;-59
2022/05/03 06:24:15;;;;;;;20.20;11.53;;;8.90;99.90;;;;;;5039457;28;20422;-60
2022/05/03 06:26:41;;;;;;;23.87;13.13;;;8.90;99.90;;;;;;5045618;28;20422;-60
2022/05/03 06:29:09;;;;;;;24.47;12.67;;;9.00;99.90;;;;;;5048626;28;20817;-59
2022/05/03 06:31:43;;;;;;;25.93;12.60;;;9.00;99.90;;;;;;5045571;28;20195;-58
2022/05/03 06:34:10;;;;;;;19.47;12.50;;;9.10;99.90;;;;;;5039557;28;20829;-59
2022/05/03 06:36:36;;;;;;;21.33;13.30;;;9.10;99.90;;;;;;5046424;28;20480;-59
2022/05/03 06:39:06;;;;;;;25.13;12.97;;;9.20;99.90;;;;;;5032762;28;20446;-58
2022/05/03 06:41:32;;;;;;;21.03;12.27;;;9.30;99.90;;;;;;5044570;28;20261;-58
2022/05/03 06:43:58;;;;;;;21.93;11.50;;;9.40;99.90;;;;;;5040477;28;20860;-59
2022/05/03 06:46:27;;;;;;;21.63;12.20;;;9.60;99.90;;;;;;5044617;28;20494;-59
2022/05/03 06:48:53;;;;;;;22.93;12.50;;;9.70;99.90;;;;;;5045011;28;20171;-59
2022/05/03 06:51:19;;;;;;;19.93;12.57;;;9.90;99.90;;;;;;5043518;28;20468;-60
2022/05/03 06:53:46;;;;;;;23.03;12.90;;;10.00;99.90;;;;;;5042443;28;20187;-59
2022/05/03 06:56:12;;;;;;;23.17;13.50;;;10.10;99.90;;;;;;5042821;28;20529;-60
2022/05/03 06:58:37;;;;;;;19.57;12.57;;;10.20;99.90;;;;;;5037386;28;20468;-60
2022/05/03 07:01:08;;;;;;;22.30;13.00;;;10.30;99.90;;;;;;5039076;28;20268;-59
2022/05/03 07:03:33;;;;;;;20.40;12.33;;;10.50;99.90;;;;;;5033910;28;20191;-60
2022/05/03 07:05:59;;;;;;;21.03;11.80;;;10.60;99.60;;;;;;5036066;28;20434;-60
2022/05/03 07:08:25;;;;;;;27.73;13.10;;;10.70;99.20;;;;;;5033520;28;20178;-60
2022/05/03 07:10:50;;;;;;;22.07;13.23;;;10.80;98.70;;;;;;5042566;28;20271;-60
2022/05/03 07:13:19;;;;;;;17.73;12.20;;;11.00;98.90;;;;;;5037236;28;20187;-60
2022/05/03 07:15:44;;;;;;;22.90;13.50;;;11.20;98.90;;;;;;5031869;28;20176;-59
2022/05/03 07:23:38;;;;;;;23.40;13.70;;;11.80;98.00;;;;;;5038468;28;20887;-59
2022/05/03 07:26:04;;;;;;;15.73;11.80;;;12.00;97.50;;;;;;5044331;28;20508;-58
2022/05/03 07:28:29;;;;;;;29.20;13.73;;;12.20;94.50;;;;;;5045367;28;20167;-58
2022/05/03 07:30:56;;;;;;;20.93;11.37;;;12.30;92.60;;;;;;5036708;28;20188;-58
2022/05/03 07:33:21;;;;;;;22.93;13.10;;;12.40;92.60;;;;;;5045963;28;20173;-58
2022/05/03 07:35:47;;;;;;;18.57;11.53;;;12.60;92.00;;;;;;5045724;28;20914;-57
2022/05/03 07:38:13;;;;;;;23.43;12.70;;;12.60;87.80;;;;;;5040380;28;20175;-57
2022/05/03 07:40:38;;;;;;;21.13;12.00;;;12.70;85.20;;;;;;5046082;28;20191;-58
2022/05/03 07:43:05;;;;;;;15.47;12.10;;;12.80;89.60;;;;;;5043595;28;20614;-57
2022/05/03 07:45:30;;;;;;;22.03;11.73;;;12.90;90.30;;;;;;5043343;28;20281;-57
2022/05/03 07:47:56;;;;;;;18.07;11.50;;;13.00;87.20;;;;;;5044429;28;20496;-57
2022/05/03 07:50:22;;;;;;;19.23;11.27;;;13.10;87.50;;;;;;5040114;28;20715;-57
2022/05/03 07:52:47;;;;;;;18.47;11.07;;;13.20;83.20;;;;;;5046157;28;20186;-57
2022/05/03 07:55:13;;;;;;;19.73;11.97;;;13.20;81.70;;;;;;5037495;28;20187;-58
2022/05/03 07:57:39;;;;;;;17.30;11.67;;;13.30;81.00;;;;;;5041467;28;20183;-58
2022/05/03 08:00:05;;;;;;;14.73;12.30;;;13.40;81.80;;;;;;5039990;28;20214;-58
2022/05/03 08:02:31;;;;;;;17.53;12.20;;;13.50;82.20;;;;;;5042006;28;20190;-58
2022/05/03 08:04:57;;;;;;;15.83;12.03;;;13.60;81.90;;;;;;5037138;28;20499;-58
2022/05/03 08:07:23;;;;;;;17.13;11.77;;;13.60;81.90;;;;;;5041419;28;20175;-58
2022/05/03 08:09:49;;;;;;;16.97;11.60;;;13.70;81.50;;;;;;5044516;28;20277;-59
2022/05/03 08:12:15;;;;;;;13.30;10.40;;;13.80;78.90;;;;;;5034358;28;20219;-59
2022/05/03 08:14:41;;;;;;;18.20;11.33;;;13.90;76.00;;;;;;5046592;28;20183;-59
2022/05/03 08:17:08;;;;;;;14.30;9.70;;;14.10;74.00;;;;;;5040809;28;20441;-59
2022/05/03 08:19:34;;;;;;;12.77;10.70;;;14.20;74.70;;;;;;5042281;28;20266;-59
2022/05/03 08:22:00;;;;;;;16.77;10.53;;;14.40;76.10;;;;;;5039569;28;20552;-60
2022/05/03 08:24:26;;;;;;;15.03;10.27;;;14.50;75.50;;;;;;5040749;28;20512;-59
2022/05/03 08:26:52;;;;;;;10.77;9.23;;;14.80;75.10;;;;;;5046510;28;20612;-59
2022/05/03 08:29:19;;;;;;;12.30;9.17;;;15.00;71.60;;;;;;5045693;28;20521;-58
2022/05/03 08:31:45;;;;;;;11.97;9.27;;;15.20;69.20;;;;;;5040471;28;20445;-58
2022/05/03 08:34:11;;;;;;;13.70;9.20;;;15.20;66.40;;;;;;5044885;28;20819;-58
2022/05/03 08:36:37;;;;;;;15.60;10.43;;;15.20;65.50;;;;;;5046416;28;20418;-57
2022/05/03 08:42:07;;;;;;;16.73;10.13;;;15.00;66.00;;;;;;5039164;28;20464;-57
2022/05/03 08:44:34;;;;;;;11.20;9.20;;;15.00;66.60;;;;;;5048511;28;20458;-57
2022/05/03 08:47:02;;;;;;;11.97;9.70;;;14.80;66.60;;;;;;5045958;28;20421;-58
2022/05/03 08:49:54;;;;;;;12.43;9.30;;;14.70;66.80;;;;;;5044667;28;20449;-58
2022/05/03 08:52:22;;;;;;;18.37;10.20;;;14.70;67.30;;;;;;5031721;28;20433;-57
2022/05/03 08:54:48;;;;;;;15.03;10.80;;;14.60;67.00;;;;;;5044537;28;20436;-57
2022/05/03 08:57:14;;;;;;;11.83;10.17;;;14.50;67.20;;;;;;5045630;28;20416;-58
2022/05/03 08:59:43;;;;;;;12.40;9.70;;;14.50;67.10;;;;;;5045947;28;20433;-58
2022/05/03 09:02:10;;;;;;;14.70;10.70;;;14.50;67.40;;;;;;5048380;28;20453;-58
2022/05/03 09:04:35;;;;;;;17.10;9.90;;;14.50;67.80;;;;;;5045115;28;20871;-58
2022/05/03 09:07:20;;;;;;;13.80;10.63;;;14.50;66.60;;;;;;5047495;28;20544;-58
2022/05/03 09:09:46;;;;;;;11.57;10.23;;;14.50;66.10;;;;;;5047390;28;20222;-58
2022/05/03 09:12:29;;;;;;;14.17;10.33;;;14.50;66.00;;;;;;5045685;28;20429;-57
2022/05/03 09:14:56;;;;;;;10.77;9.63;;;14.60;66.20;;;;;;5044787;28;20447;-58
2022/05/03 09:17:44;;;;;;;14.03;10.93;;;14.60;67.00;;;;;;5048310;28;20504;-57
2022/05/03 09:25:52;;;;;;;15.93;11.47;;;14.50;85.90;;;;;;5037062;28;20932;-56
2022/05/03 09:28:22;;;;;;;17.77;12.23;;;14.40;93.00;;;;;;5039465;28;20457;-56
2022/05/03 09:30:50;;;;;;;14.87;9.30;;;14.10;94.70;;;;;;5044090;28;20202;-55
2022/05/03 09:33:18;;;;;;;11.60;8.10;;;13.80;76.80;;;;;;5045357;28;20430;-57
2022/05/03 09:35:45;;;;;;;13.33;8.40;;;13.50;80.20;;;;;;5047544;28;20422;-59
2022/05/03 09:38:11;;;;;;;9.90;6.57;;;13.20;72.40;;;;;;5046794;28;20425;-55
2022/05/03 09:40:40;;;;;;;10.70;7.10;;;12.90;71.00;;;;;;5046694;28;20450;-52
2022/05/03 09:43:05;;;;;;;8.40;5.40;;;12.70;66.30;;;;;;5045778;28;20289;-51
2022/05/03 09:45:31;;;;;;;10.17;7.57;;;12.50;68.20;;;;;;5044991;28;20520;-53
2022/05/03 09:47:59;;;;;;;10.97;7.30;;;12.40;75.90;;;;;;5048132;28;20171;-53
2022/05/03 09:50:27;;;;;;;9.03;6.07;;;12.30;71.70;;;;;;5046814;28;20489;-51
2022/05/03 09:52:54;;;;;;;11.50;7.20;;;12.20;74.30;;;;;;5046776;28;20427;-53
2022/05/03 09:55:36;;;;;;;18.03;8.30;;;12.10;90.30;;;;;;5042007;28;20477;-53
2022/05/03 09:58:07;;;;;;;8.20;6.47;;;12.00;93.70;;;;;;5043428;28;20426;-52
2022/05/03 10:00:34;;;;;;;7.57;6.00;;;11.80;95.10;;;;;;5036733;28;20526;-53
2022/05/03 10:03:01;;;;;;;10.33;5.97;;;11.70;94.60;;;;;;5043832;28;20472;-52
2022/05/03 10:05:28;;;;;;;6.60;5.60;;;11.60;96.70;;;;;;5042720;28;20463;-54
2022/05/03 10:07:54;;;;;;;7.77;6.60;;;11.50;98.60;;;;;;5044683;28;20432;-55
2022/05/03 10:10:21;;;;;;;8.67;7.10;;;11.50;99.90;;;;;;5046226;28;20445;-55
2022/05/03 10:12:49;;;;;;;13.80;7.97;;;11.40;99.90;;;;;;5041458;28;20508;-55
2022/05/03 10:20:35;;;;;;;18.27;8.47;;;11.40;99.90;;;;;;5040983;28;20442;-55
2022/05/03 10:20:55;;;;;;;13.50;8.00;;;11.50;99.90;;;;;;5044761;28;20828;-55
2022/05/03 10:23:22;;;;;;;10.10;8.30;;;11.60;99.90;;;;;;5045871;28;20433;-55
2022/05/03 10:25:47;;;;;;;7.73;6.90;;;11.70;99.90;;;;;;5047351;28;20410;-54
2022/05/03 10:28:13;;;;;;;9.90;7.30;;;11.80;99.90;;;;;;5042339;28;20437;-56
2022/05/03 10:31:04;;;;;;;10.17;7.83;;;11.90;99.90;;;;;;5043033;28;20191;-55
2022/05/03 10:33:30;;;;;;;24.20;11.57;;;12.00;99.90;;;;;;5042901;28;20433;-58
2022/05/03 10:35:57;;;;;;;44.07;13.70;;;12.10;99.90;;;;;;5042633;28;20905;-58
2022/05/03 10:38:43;;;;;;;24.73;10.57;;;12.40;99.90;;;;;;5044998;28;20184;-58
2022/05/03 10:41:10;;;;;;;17.17;8.83;;;12.50;99.90;;;;;;5043395;28;20461;-57
2022/05/03 10:43:38;;;;;;;13.53;9.90;;;12.60;99.90;;;;;;5040777;28;20425;-57
2022/05/03 10:46:11;;;;;;;18.83;10.20;;;12.60;99.90;;;;;;5041589;28;20429;-57
2022/05/03 10:48:41;;;;;;;14.37;8.23;;;12.60;99.90;;;;;;5044458;28;20881;-57
2022/05/03 10:51:12;;;;;;;8.77;6.73;;;12.50;99.90;;;;;;5044380;28;20536;-57
2022/05/03 10:53:41;;;;;;;9.70;7.60;;;12.30;99.90;;;;;;5043744;28;20842;-58
2022/05/03 10:56:26;;;;;;;12.53;9.43;;;12.20;99.90;;;;;;5042061;28;20518;-58
2022/05/03 10:59:15;;;;;;;17.07;10.43;;;12.10;99.90;;;;;;5041675;28;20430;-58
2022/05/03 11:01:56;;;;;;;12.90;8.20;;;12.10;99.90;;;;;;5035129;28;20526;-59
2022/05/03 11:04:25;;;;;;;15.93;7.80;;;12.00;99.90;;;;;;5039672;28;20442;-57
2022/05/03 11:06:51;;;;;;;9.70;7.87;;;12.00;99.90;;;;;;5039354;28;20519;-57
2022/05/03 11:09:35;;;;;;;10.83;7.40;;;11.90;99.90;;;;;;5043275;28;20438;-56
2022/05/03 11:12:05;;;;;;;9.00;6.90;;;11.90;99.90;;;;;;5042515;28;20441;-56
2022/05/03 11:14:31;;;;;;;17.40;8.80;;;11.80;99.90;;;;;;5042321;28;20464;-57
2022/05/03 11:17:08;;;;;;;13.53;8.93;;;11.90;99.90;;;;;;5043032;28;20457;-57
2022/05/03 11:19:55;;;;;;;14.53;8.50;;;11.80;99.90;;;;;;5039120;28;20205;-55
2022/05/03 11:22:35;;;;;;;11.00;8.43;;;11.80;99.90;;;;;;5036327;28;21121;-58
2022/05/03 11:25:07;;;;;;;9.67;7.60;;;11.70;99.90;;;;;;5038189;28;20434;-56
2022/05/03 11:27:33;;;;;;;12.30;8.77;;;11.70;99.90;;;;;;5030042;28;20465;-53
2022/05/03 11:30:01;;;;;;;10.60;8.80;;;11.70;99.90;;;;;;5035786;28;20462;-53
2022/05/03 11:32:41;;;;;;;12.03;8.93;;;11.70;99.90;;;;;;5032747;28;20444;-57
2022/05/03 11:35:21;;;;;;;11.50;9.37;;;11.70;99.90;;;;;;5039735;28;20603;-55
2022/05/03 11:37:59;;;;;;;14.83;9.70;;;11.70;99.90;;;;;;5044030;28;20436;-55
2022/05/03 11:40:29;;;;;;;13.60;9.00;;;11.80;99.90;;;;;;5031562;28;20449;-57
2022/05/03 11:42:54;;;;;;;12.50;8.87;;;11.90;99.90;;;;;;5032281;28;20951;-57
2022/05/03 11:45:21;;;;;;;12.70;9.00;;;12.00;99.90;;;;;;5026762;28;20419;-56
2022/05/03 11:47:48;;;;;;;14.37;10.27;;;12.10;99.90;;;;;;5038138;28;20183;-55
2022/05/03 11:55:58;;;;;;;19.33;11.43;;;12.30;99.90;;;;;;5036681;28;20984;-57
2022/05/03 11:56:04;;;;;;;16.87;10.17;;;12.60;99.90;;;;;;5037820;28;20432;-58
2022/05/03 11:58:33;;;;;;;13.57;9.40;;;12.70;99.90;;;;;;5036709;28;20430;-58
2022/05/03 12:00:59;;;;;;;12.17;9.73;;;12.80;99.90;;;;;;5038541;28;20453;-58
2022/05/03 12:03:25;;;;;;;14.30;9.57;;;12.90;99.90;;;;;;5040283;28;20473;-58
2022/05/03 12:06:04;;;;;;;11.73;10.00;;;13.00;99.90;;;;;;5036934;28;20246;-57
2022/05/03 12:08:31;;;;;;;18.13;9.20;;;13.10;99.90;;;;;;5043065;28;20898;-59
2022/05/03 12:10:56;;;;;;;12.40;9.30;;;13.20;99.90;;;;;;5035932;28;20468;-60
2022/05/03 12:13:22;;;;;;;11.23;8.20;;;13.30;99.90;;;;;;5035967;28;20426;-57
2022/05/03 12:15:48;;;;;;;12.30;8.87;;;13.40;99.90;;;;;;5039264;28;20438;-58
2022/05/03 12:18:19;;;;;;;10.40;7.87;;;13.50;99.90;;;;;;5040087;28;20175;-58
2022/05/03 12:20:51;;;;;;;15.80;8.70;;;13.60;99.90;;;;;;5040581;28;20235;-58
2022/05/03 12:23:24;;;;;;;11.17;8.33;;;13.70;99.90;;;;;;5042409;28;20964;-57
2022/05/03 12:25:55;;;;;;;17.37;9.30;;;13.80;99.90;;;;;;5044777;28;20479;-58
2022/05/03 12:28:37;;;;;;;10.40;8.60;;;13.90;99.90;;;;;;5041793;28;21071;-57
2022/05/03 12:31:05;;;;;;;11.77;8.20;;;13.90;99.90;;;;;;5036612;28;20449;-58
2022/05/03 12:33:32;;;;;;;11.20;8.77;;;13.90;99.90;;;;;;5041138;28;20434;-58
2022/05/03 12:35:58;;;;;;;13.17;7.90;;;14.00;99.90;;;;;;5043798;28;20566;-57
2022/05/03 12:38:25;;;;;;;13.03;8.83;;;14.10;99.90;;;;;;5038532;28;20426;-57
2022/05/03 12:40:56;;;;;;;12.00;7.33;;;14.10;99.90;;;;;;5041760;28;20445;-58
2022/05/03 12:43:26;;;;;;;8.97;7.37;;;14.20;99.90;;;;;;5043191;28;20548;-59
2022/05/03 12:46:03;;;;;;;12.50;7.63;;;14.20;99.90;;;;;;5044038;28;20674;-55
2022/05/03 12:48:31;;;;;;;12.20;7.57;;;14.30;99.90;;;;;;5043710;28;20512;-58
2022/05/03 12:50:57;;;;;;;11.93;6.80;;;14.30;99.90;;;;;;5039174;28;20449;-58
2022/05/03 12:53:27;;;;;;;14.67;8.27;;;14.40;99.90;;;;;;5039310;28;20941;-56
2022/05/03 12:55:55;;;;;;;9.43;6.60;;;14.60;99.90;;;;;;5046650;28;20439;-56
2022/05/03 12:58:21;;;;;;;16.37;8.00;;;14.80;99.90;;;;;;5048173;28;20443;-56
2022/05/03 13:00:51;;;;;;;8.10;7.30;;;15.00;99.90;;;;;;5047469;28;20532;-56
2022/05/03 13:03:17;;;;;;;9.33;6.70;;;15.20;99.90;;;;;;5041847;28;20483;-57
2022/05/03 13:05:43;;;;;;;12.57;6.67;;;15.40;99.90;;;;;;5044200;28;20433;-57
2022/05/03 13:08:08;;;;;;;10.10;5.97;;;15.70;99.90;;;;;;5044417;28;20556;-56
2022/05/03 13:10:34;;;;;;;6.73;5.37;;;16.10;99.90;;;;;;5043375;28;20196;-57
2022/05/03 13:13:01;;;;;;;6.23;5.00;;;16.50;97.30;;;;;;5036282;28;20187;-56
2022/05/03 13:15:27;;;;;;;11.87;5.67;;;17.00;94.70;;;;;;5045444;28;20608;-56
2022/05/03 13:17:53;;;;;;;6.77;5.43;;;17.60;94.10;;;;;;5044078;28;20431;-56
2022/05/03 13:20:20;;;;;;;6.57;5.30;;;18.20;88.00;;;;;;5044044;28;20191;-57
2022/05/03 13:22:46;;;;;;;7.53;5.43;;;18.80;77.00;;;;;;5044707;28;20684;-56
2022/05/03 13:25:11;;;;;;;11.47;6.53;;;19.30;73.50;;;;;;5045661;28;20441;-56